Tim S. Dool — VGPY — position and weather

sailwx.info

Track history (hours):
 
Tides and Currents Weather Stations Pressure Air Temp Water Temp Dewpoint Dewpoint Depression Visibility Wind Speed Wind Dir Waves Ship Positions

Tim S. Dool

Last reported at 2016-Jul-25 15:08 UTC. Time now 2016-Jul-26 16:08 UTC.
Position N 46°55' W 091°35'.

Length 223 m; draft 6.2 m.

Type: Cargo ship. MMSI: 316001696.

Date/timePositionNaut miles runAvg speedWind from/ knotsBaromVisibWave heightAir tempDewpointWater temp
2016-Jul-25 15:08N 46°55' W 091°35'5 8.6
2016-Jul-25 14:33N 46°52' W 091°41'9 9.3
2016-Jul-25 13:33N 46°47' W 091°52'8 8.1
2016-Jul-25 12:32N 46°43' W 092°02'4 3.6
2016-Jul-25 11:34N 46°45' W 092°06'0 0.0
2016-Jul-25 10:33N 46°45' W 092°06'0 0.0
2016-Jul-25 09:33N 46°45' W 092°06'0 0.0
2016-Jul-25 08:33N 46°45' W 092°06'0 0.0
2016-Jul-25 07:33N 46°45' W 092°06'0 0.0
2016-Jul-25 06:33N 46°45' W 092°06'0 0.0
2016-Jul-25 05:33N 46°45' W 092°06'0 0.0
2016-Jul-25 04:33N 46°45' W 092°06'0 0.0
2016-Jul-25 03:33N 46°45' W 092°06'0 0.0
2016-Jul-25 02:33N 46°45' W 092°06'0 0.0
2016-Jul-25 01:33N 46°45' W 092°06'0 0.0
2016-Jul-25 00:33N 46°45' W 092°06'0 0.0
2016-Jul-24 23:33N 46°45' W 092°06'0 0.0
2016-Jul-24 22:33N 46°45' W 092°06'0 0.0
2016-Jul-24 21:33N 46°45' W 092°06'0 0.0
2016-Jul-24 20:33N 46°45' W 092°06'0 0.0
2016-Jul-24 19:34N 46°45' W 092°06'0 0.0
2016-Jul-24 18:33N 46°45' W 092°06'0 0.0
2016-Jul-24 17:33N 46°45' W 092°06'0 0.0
2016-Jul-24 16:33N 46°45' W 092°06'0 0.0
2016-Jul-24 15:33N 46°45' W 092°06'0 0.0
2016-Jul-24 14:33N 46°45' W 092°06'0 0.0
2016-Jul-24 13:33N 46°45' W 092°06'0 0.0
2016-Jul-24 12:33N 46°45' W 092°06'0 0.0
2016-Jul-24 11:33N 46°45' W 092°06'0 0.0
2016-Jul-24 10:33N 46°45' W 092°06'0 0.0
2016-Jul-24 09:33N 46°45' W 092°06'0 0.0
2016-Jul-24 08:33N 46°45' W 092°06'0 0.0
2016-Jul-24 07:33N 46°45' W 092°06'0 0.0
2016-Jul-24 06:33N 46°45' W 092°06'0 0.0
2016-Jul-24 05:33N 46°45' W 092°06'0 0.0
2016-Jul-24 04:33N 46°45' W 092°06'0 0.0
2016-Jul-24 03:33N 46°45' W 092°06'0 0.0
2016-Jul-24 02:33N 46°45' W 092°06'0 0.0
2016-Jul-24 01:33N 46°45' W 092°06'0 0.0
2016-Jul-24 00:33N 46°45' W 092°06'0 0.0
2016-Jul-23 23:33N 46°45' W 092°06'0 0.0
2016-Jul-23 22:33N 46°45' W 092°06'0 0.0
2016-Jul-23 21:33N 46°45' W 092°06'0 0.0
2016-Jul-23 20:33N 46°45' W 092°06'0 0.0
2016-Jul-23 19:33N 46°45' W 092°06'0 0.0
2016-Jul-23 18:33N 46°45' W 092°06'0 0.0
2016-Jul-23 17:33N 46°45' W 092°06'0 0.0
2016-Jul-23 16:33N 46°45' W 092°06'0 0.0
2016-Jul-23 15:33N 46°45' W 092°06'0 0.0
2016-Jul-23 14:33N 46°45' W 092°06'0 0.0
2016-Jul-23 13:33N 46°45' W 092°06'0 0.0
2016-Jul-23 12:33N 46°45' W 092°06'0 0.0
2016-Jul-23 11:33N 46°45' W 092°06'0 0.0
2016-Jul-23 10:33N 46°45' W 092°06'0 0.0
2016-Jul-23 09:33N 46°45' W 092°06'0 0.0
2016-Jul-23 08:33N 46°45' W 092°06'0 0.0
2016-Jul-23 07:33N 46°45' W 092°06'0 0.0
2016-Jul-23 06:33N 46°45' W 092°06'0 0.0
2016-Jul-23 04:33N 46°45' W 092°06'0 0.0
2016-Jul-23 03:33N 46°45' W 092°06'0 0.0
2016-Jul-23 02:33N 46°45' W 092°06'0 0.0
2016-Jul-23 01:32N 46°45' W 092°06'0 0.0
2016-Jul-23 00:33N 46°45' W 092°06'0 0.0
2016-Jul-22 23:34N 46°45' W 092°06'0 0.0
2016-Jul-22 22:33N 46°45' W 092°06'0 0.0
2016-Jul-22 21:33N 46°45' W 092°06'0 0.0
2016-Jul-22 20:33N 46°45' W 092°06'0 0.0
2016-Jul-22 19:33N 46°45' W 092°06'0 0.0
2016-Jul-22 18:33N 46°45' W 092°06'0 0.0
2016-Jul-22 17:33N 46°45' W 092°06'0 0.0
2016-Jul-22 16:33N 46°45' W 092°06'0 0.0
2016-Jul-22 15:33N 46°45' W 092°06'0 0.0
2016-Jul-22 14:33N 46°45' W 092°06'0 0.0
2016-Jul-22 13:33N 46°45' W 092°06'0 0.0
2016-Jul-22 12:33N 46°45' W 092°06'0 0.0
2016-Jul-22 11:33N 46°45' W 092°06'2 1.6
2016-Jul-22 10:33N 46°44' W 092°04'8 7.5
2016-Jul-22 09:33N 46°46' W 091°54'1312.7
2016-Jul-22 08:33N 46°51' W 091°37'1412.8
2016-Jul-22 07:26N 46°58' W 091°18'  
2016-Jul-19 04:33N 43°13' W 079°13'1 0.9
2016-Jul-19 03:34N 43°14' W 079°13'  
2016-Jul-15 19:28N 43°16' W 079°14'3 3.1
2016-Jul-15 18:34N 43°13' W 079°13'  
Track history (hours):
 
Tides and Currents Weather Stations Pressure Air Temp Water Temp Dewpoint Dewpoint Depression Visibility Wind Speed Wind Dir Waves Ship Positions

Tim S. Dool

Last reported at 2016-Jul-25 15:08 UTC. Time now 2016-Jul-26 16:08 UTC.
Position N 46°55' W 091°35'.

Length 223 m; draft 6.2 m.

Type: Cargo ship. MMSI: 316001696.

Date/timePositionNaut miles runAvg speedWind from/ knotsBaromVisibWave heightAir tempDewpointWater temp
2016-Jul-25 15:08N 46°55' W 091°35'5 8.6
2016-Jul-25 14:33N 46°52' W 091°41'9 9.3
2016-Jul-25 13:33N 46°47' W 091°52'8 8.1
2016-Jul-25 12:32N 46°43' W 092°02'4 3.6
2016-Jul-25 11:34N 46°45' W 092°06'0 0.0
2016-Jul-25 10:33N 46°45' W 092°06'0 0.0
2016-Jul-25 09:33N 46°45' W 092°06'0 0.0
2016-Jul-25 08:33N 46°45' W 092°06'0 0.0
2016-Jul-25 07:33N 46°45' W 092°06'0 0.0
2016-Jul-25 06:33N 46°45' W 092°06'0 0.0
2016-Jul-25 05:33N 46°45' W 092°06'0 0.0
2016-Jul-25 04:33N 46°45' W 092°06'0 0.0
2016-Jul-25 03:33N 46°45' W 092°06'0 0.0
2016-Jul-25 02:33N 46°45' W 092°06'0 0.0
2016-Jul-25 01:33N 46°45' W 092°06'0 0.0
2016-Jul-25 00:33N 46°45' W 092°06'0 0.0
2016-Jul-24 23:33N 46°45' W 092°06'0 0.0
2016-Jul-24 22:33N 46°45' W 092°06'0 0.0
2016-Jul-24 21:33N 46°45' W 092°06'0 0.0
2016-Jul-24 20:33N 46°45' W 092°06'0 0.0
2016-Jul-24 19:34N 46°45' W 092°06'0 0.0
2016-Jul-24 18:33N 46°45' W 092°06'0 0.0
2016-Jul-24 17:33N 46°45' W 092°06'0 0.0
2016-Jul-24 16:33N 46°45' W 092°06'0 0.0
2016-Jul-24 15:33N 46°45' W 092°06'0 0.0
2016-Jul-24 14:33N 46°45' W 092°06'0 0.0
2016-Jul-24 13:33N 46°45' W 092°06'0 0.0
2016-Jul-24 12:33N 46°45' W 092°06'0 0.0
2016-Jul-24 11:33N 46°45' W 092°06'0 0.0
2016-Jul-24 10:33N 46°45' W 092°06'0 0.0
2016-Jul-24 09:33N 46°45' W 092°06'0 0.0
2016-Jul-24 08:33N 46°45' W 092°06'0 0.0
2016-Jul-24 07:33N 46°45' W 092°06'0 0.0
2016-Jul-24 06:33N 46°45' W 092°06'0 0.0
2016-Jul-24 05:33N 46°45' W 092°06'0 0.0
2016-Jul-24 04:33N 46°45' W 092°06'0 0.0
2016-Jul-24 03:33N 46°45' W 092°06'0 0.0
2016-Jul-24 02:33N 46°45' W 092°06'0 0.0
2016-Jul-24 01:33N 46°45' W 092°06'0 0.0
2016-Jul-24 00:33N 46°45' W 092°06'0 0.0
2016-Jul-23 23:33N 46°45' W 092°06'0 0.0
2016-Jul-23 22:33N 46°45' W 092°06'0 0.0
2016-Jul-23 21:33N 46°45' W 092°06'0 0.0
2016-Jul-23 20:33N 46°45' W 092°06'0 0.0
2016-Jul-23 19:33N 46°45' W 092°06'0 0.0
2016-Jul-23 18:33N 46°45' W 092°06'0 0.0
2016-Jul-23 17:33N 46°45' W 092°06'0 0.0
2016-Jul-23 16:33N 46°45' W 092°06'0 0.0
2016-Jul-23 15:33N 46°45' W 092°06'0 0.0
2016-Jul-23 14:33N 46°45' W 092°06'0 0.0
2016-Jul-23 13:33N 46°45' W 092°06'0 0.0
2016-Jul-23 12:33N 46°45' W 092°06'0 0.0
2016-Jul-23 11:33N 46°45' W 092°06'0 0.0
2016-Jul-23 10:33N 46°45' W 092°06'0 0.0
2016-Jul-23 09:33N 46°45' W 092°06'0 0.0
2016-Jul-23 08:33N 46°45' W 092°06'0 0.0
2016-Jul-23 07:33N 46°45' W 092°06'0 0.0
2016-Jul-23 06:33N 46°45' W 092°06'0 0.0
2016-Jul-23 04:33N 46°45' W 092°06'0 0.0
2016-Jul-23 03:33N 46°45' W 092°06'0 0.0
2016-Jul-23 02:33N 46°45' W 092°06'0 0.0
2016-Jul-23 01:32N 46°45' W 092°06'0 0.0
2016-Jul-23 00:33N 46°45' W 092°06'0 0.0
2016-Jul-22 23:34N 46°45' W 092°06'0 0.0
2016-Jul-22 22:33N 46°45' W 092°06'0 0.0
2016-Jul-22 21:33N 46°45' W 092°06'0 0.0
2016-Jul-22 20:33N 46°45' W 092°06'0 0.0
2016-Jul-22 19:33N 46°45' W 092°06'0 0.0
2016-Jul-22 18:33N 46°45' W 092°06'0 0.0
2016-Jul-22 17:33N 46°45' W 092°06'0 0.0
2016-Jul-22 16:33N 46°45' W 092°06'0 0.0
2016-Jul-22 15:33N 46°45' W 092°06'0 0.0
2016-Jul-22 14:33N 46°45' W 092°06'0 0.0
2016-Jul-22 13:33N 46°45' W 092°06'0 0.0
2016-Jul-22 12:33N 46°45' W 092°06'0 0.0
2016-Jul-22 11:33N 46°45' W 092°06'2 1.6
2016-Jul-22 10:33N 46°44' W 092°04'8 7.5
2016-Jul-22 09:33N 46°46' W 091°54'1312.7
2016-Jul-22 08:33N 46°51' W 091°37'1412.8
2016-Jul-22 07:26N 46°58' W 091°18'  
2016-Jul-19 04:33N 43°13' W 079°13'1 0.9
2016-Jul-19 03:34N 43°14' W 079°13'  
2016-Jul-15 19:28N 43°16' W 079°14'3 3.1
2016-Jul-15 18:34N 43°13' W 079°13'  

Dump ship's entire track history